createdAt,value
2018-12-09T00:00:19.440Z,95909.53
2018-12-09T00:00:51.029Z,95903.11
2018-12-09T00:01:22.622Z,95904.14
2018-12-09T00:01:54.237Z,95907.58
2018-12-09T00:02:25.821Z,95897.84
2018-12-09T00:02:57.404Z,95891.48
2018-12-09T00:03:28.994Z,95889.33
2018-12-09T00:04:00.585Z,95893.59
2018-12-09T00:04:32.167Z,95892.02
2018-12-09T00:05:03.761Z,95880.10
2018-12-09T00:05:35.372Z,95877.13
2018-12-09T00:06:06.959Z,95880.27
2018-12-09T00:06:38.572Z,95837.09
2018-12-09T00:07:10.183Z,95874.35
2018-12-09T00:07:41.782Z,95874.51
2018-12-09T00:08:13.392Z,95878.39
2018-12-09T00:08:44.989Z,95867.44
2018-12-09T00:09:16.585Z,95870.00
2018-12-09T00:09:48.188Z,95867.96
2018-12-09T00:10:19.795Z,95864.20
2018-12-09T00:10:51.403Z,95865.53
2018-12-09T00:11:22.997Z,95859.19
2018-12-09T00:11:54.617Z,95850.27
2018-12-09T00:12:26.216Z,95848.16
2018-12-09T00:12:57.814Z,95850.30
2018-12-09T00:13:29.415Z,95851.95
2018-12-09T00:14:01.009Z,95842.57
2018-12-09T00:14:32.604Z,95849.35
2018-12-09T00:15:04.212Z,95853.20
2018-12-09T00:15:35.819Z,95849.02
2018-12-09T00:16:07.432Z,95846.95
2018-12-09T00:16:39.068Z,95842.69
2018-12-09T00:17:10.665Z,95839.71
2018-12-09T00:17:42.332Z,95837.15
2018-12-09T00:18:13.941Z,95835.45
2018-12-09T00:18:45.524Z,95833.34
2018-12-09T00:19:17.123Z,95832.98
2018-12-09T00:19:48.709Z,95835.66
2018-12-09T00:20:20.333Z,95828.88
2018-12-09T00:20:51.941Z,95826.31
2018-12-09T00:21:23.553Z,95834.46
2018-12-09T00:21:55.174Z,95826.93
2018-12-09T00:22:26.784Z,95825.98
2018-12-09T00:22:58.382Z,95825.23
2018-12-09T00:23:29.995Z,95823.95
2018-12-09T00:24:01.590Z,95824.44
2018-12-09T00:24:33.181Z,95822.79
2018-12-09T00:25:04.786Z,95825.81
2018-12-09T00:25:36.386Z,95825.39
2018-12-09T00:26:07.981Z,95820.80
2018-12-09T00:26:39.597Z,95824.03
2018-12-09T00:27:11.190Z,95818.13
2018-12-09T00:27:42.773Z,95816.80
2018-12-09T00:28:14.356Z,95823.16
2018-12-09T00:28:45.940Z,95821.77
2018-12-09T00:29:17.524Z,95821.39
2018-12-09T00:29:49.126Z,95813.36
2018-12-09T00:30:20.737Z,95812.09
2018-12-09T00:30:52.320Z,95821.14
2018-12-09T00:31:23.932Z,95817.70
2018-12-09T00:31:55.554Z,95818.13
2018-12-09T00:32:27.153Z,95816.38
2018-12-09T00:32:58.745Z,95818.98
2018-12-09T00:33:30.332Z,95811.26
2018-12-09T00:34:01.944Z,95816.80
2018-12-09T00:34:33.556Z,95806.09
2018-12-09T00:35:05.146Z,95813.03
2018-12-09T00:35:36.728Z,95812.17
2018-12-09T00:36:08.317Z,95803.01
2018-12-09T00:36:40.107Z,95806.29
2018-12-09T00:37:11.703Z,95806.29
2018-12-09T00:37:43.298Z,95800.30
2018-12-09T00:38:14.908Z,95804.89
2018-12-09T00:38:46.525Z,95801.13
2018-12-09T00:39:18.137Z,95807.52
2018-12-09T00:39:49.733Z,95807.53
2018-12-09T00:40:21.323Z,95804.61
2018-12-09T00:40:52.932Z,95806.75
2018-12-09T00:41:24.533Z,95808.66
2018-12-09T00:41:56.118Z,95799.66
2018-12-09T00:42:27.714Z,95802.28
2018-12-09T00:42:59.309Z,95797.93
2018-12-09T00:43:30.919Z,95797.53
2018-12-09T00:44:02.524Z,95798.83
2018-12-09T00:44:34.117Z,95795.58
2018-12-09T00:45:05.710Z,95801.82
2018-12-09T00:45:37.302Z,95802.45
2018-12-09T00:46:08.934Z,95788.08
2018-12-09T00:46:40.520Z,95796.92
2018-12-09T00:47:12.114Z,95792.92
2018-12-09T00:47:43.710Z,95789.83
2018-12-09T00:48:15.298Z,95793.17
2018-12-09T00:48:46.896Z,95790.16
2018-12-09T00:49:18.489Z,95790.04
2018-12-09T00:49:50.099Z,95777.48
2018-12-09T00:50:21.701Z,95780.41
2018-12-09T00:50:53.293Z,95782.40
2018-12-09T00:51:24.878Z,95783.64
2018-12-09T00:51:56.512Z,95792.53
2018-12-09T00:52:28.115Z,95789.59
2018-12-09T00:52:59.728Z,95792.23
2018-12-09T00:53:31.326Z,95794.39
2018-12-09T00:54:02.917Z,95785.08
2018-12-09T00:54:34.568Z,95786.28
2018-12-09T00:55:06.168Z,95710.80
2018-12-09T00:55:37.765Z,95793.02
2018-12-09T00:56:09.376Z,95791.38
2018-12-09T00:56:40.970Z,95783.64
2018-12-09T00:57:12.593Z,95790.38
2018-12-09T00:57:44.195Z,95787.32
2018-12-09T00:58:15.804Z,95780.05
2018-12-09T00:58:47.388Z,95779.88
2018-12-09T00:59:18.967Z,95776.80
2018-12-09T00:59:50.559Z,95781.00
2018-12-09T01:00:22.154Z,95786.55
2018-12-09T01:00:53.745Z,95775.88
2018-12-09T01:01:25.353Z,95778.90
2018-12-09T01:01:56.983Z,95781.42
2018-12-09T01:02:28.586Z,95782.74
2018-12-09T01:03:00.177Z,95783.61
2018-12-09T01:03:31.759Z,95776.30
2018-12-09T01:04:03.356Z,95771.67
2018-12-09T01:04:34.968Z,95766.91
2018-12-09T01:05:06.577Z,95768.56
2018-12-09T01:05:38.183Z,95773.23
2018-12-09T01:06:09.792Z,95770.09
2018-12-09T01:06:41.399Z,95765.30
2018-12-09T01:07:13.120Z,95769.93
2018-12-09T01:07:44.654Z,95764.34
2018-12-09T01:08:16.370Z,95757.16
2018-12-09T01:08:47.931Z,95756.66
2018-12-09T01:09:23.630Z,95757.86
2018-12-09T01:09:55.470Z,95748.44
2018-12-09T01:10:27.068Z,95751.78
2018-12-09T01:10:58.669Z,95752.20
2018-12-09T01:11:30.282Z,95748.14
2018-12-09T01:12:01.919Z,95753.61
2018-12-09T01:12:33.515Z,95745.63
2018-12-09T01:13:05.124Z,95746.70
2018-12-09T01:13:36.731Z,95750.42
2018-12-09T01:14:08.339Z,95744.80
2018-12-09T01:14:39.950Z,95741.24
2018-12-09T01:15:11.545Z,95735.20
2018-12-09T01:15:43.160Z,95734.83
2018-12-09T01:16:14.770Z,95725.81
2018-12-09T01:16:46.377Z,95735.13
2018-12-09T01:17:18.007Z,95724.41
2018-12-09T01:17:49.602Z,95719.73
2018-12-09T01:18:21.217Z,95722.27
2018-12-09T01:18:52.814Z,95714.16
2018-12-09T01:19:24.409Z,95719.23
2018-12-09T01:19:56.018Z,95713.66
2018-12-09T01:20:27.622Z,95713.53
2018-12-09T01:20:59.204Z,95711.38
2018-12-09T01:21:30.797Z,95707.12
2018-12-09T01:22:02.413Z,95701.13
2018-12-09T01:22:34.050Z,95698.56
2018-12-09T01:23:05.660Z,95691.28
2018-12-09T01:23:37.261Z,95691.91
2018-12-09T01:24:08.863Z,95690.12
2018-12-09T01:24:40.475Z,95696.05
2018-12-09T01:25:12.074Z,95684.09
2018-12-09T01:25:43.674Z,95687.84
2018-12-09T01:26:15.281Z,95682.27
2018-12-09T01:26:46.929Z,95682.27
2018-12-09T01:27:18.553Z,95675.89
2018-12-09T01:27:50.197Z,95671.23
2018-12-09T01:28:21.814Z,95668.70
2018-12-09T01:28:53.423Z,95673.84
2018-12-09T01:29:25.034Z,95667.42
2018-12-09T01:29:56.642Z,95672.97
2018-12-09T01:30:28.238Z,95670.81
2018-12-09T01:30:59.842Z,95658.53
2018-12-09T01:31:31.454Z,95664.12
2018-12-09T01:32:03.091Z,95658.70
2018-12-09T01:32:34.718Z,95660.06
2018-12-09T01:33:06.320Z,95656.34
2018-12-09T01:33:37.911Z,95655.11
2018-12-09T01:34:09.520Z,95651.27
2018-12-09T01:34:41.122Z,95648.70
2018-12-09T01:35:12.731Z,95654.23
2018-12-09T01:35:44.330Z,95648.33
2018-12-09T01:36:15.929Z,95645.89
2018-12-09T01:36:47.592Z,95650.20
2018-12-09T01:37:19.216Z,95645.02
2018-12-09T01:37:50.865Z,95638.03
2018-12-09T01:38:22.462Z,95634.19
2018-12-09T01:38:54.083Z,95631.21
2018-12-09T01:39:25.681Z,95631.67
2018-12-09T01:39:57.295Z,95633.90
2018-12-09T01:40:28.897Z,95627.48
2018-12-09T01:41:00.559Z,95627.58
2018-12-09T01:41:32.150Z,95626.01
2018-12-09T01:42:03.745Z,95630.27
2018-12-09T01:42:35.365Z,95622.28
2018-12-09T01:43:06.971Z,95630.44
2018-12-09T01:43:38.569Z,95627.00
2018-12-09T01:44:10.159Z,95624.53
2018-12-09T01:44:41.775Z,95626.22
2018-12-09T01:45:13.380Z,95626.68
2018-12-09T01:45:45.000Z,95629.32
2018-12-09T01:46:16.598Z,95631.14
2018-12-09T01:46:48.250Z,95630.81
2018-12-09T01:47:19.883Z,95629.58
2018-12-09T01:47:51.499Z,95629.20
2018-12-09T01:48:23.119Z,95621.06
2018-12-09T01:48:54.722Z,95623.45
2018-12-09T01:49:26.338Z,95628.03
2018-12-09T01:49:57.955Z,95623.30
2018-12-09T01:50:29.550Z,95616.50
2018-12-09T01:51:01.165Z,95613.98
2018-12-09T01:51:32.791Z,95612.33
2018-12-09T01:52:04.405Z,95597.99
2018-12-09T01:52:36.051Z,95598.12
2018-12-09T01:53:07.650Z,95589.65
2018-12-09T01:53:39.250Z,95580.39
2018-12-09T01:54:10.859Z,95579.98
2018-12-09T01:54:42.504Z,95574.15
2018-12-09T01:55:14.110Z,95578.74
2018-12-09T01:55:45.699Z,95571.47
2018-12-09T01:56:17.297Z,95575.27
2018-12-09T01:56:48.996Z,95569.27
2018-12-09T01:57:20.633Z,95562.50
2018-12-09T01:57:52.273Z,95577.00
2018-12-09T01:58:23.899Z,95569.77
2018-12-09T01:58:55.516Z,95576.18
2018-12-09T01:59:27.124Z,95570.31
2018-12-09T01:59:58.746Z,95573.73
2018-12-09T02:00:30.368Z,95570.81
2018-12-09T02:01:01.976Z,95564.81
2018-12-09T02:01:33.592Z,95570.31
2018-12-09T02:02:05.201Z,95566.05
2018-12-09T02:02:36.835Z,95558.23
2018-12-09T02:03:08.448Z,95561.50
2018-12-09T02:03:40.064Z,95561.99
2018-12-09T02:04:11.661Z,95560.63
2018-12-09T02:04:43.271Z,95566.25
2018-12-09T02:05:14.874Z,95569.56
2018-12-09T02:05:46.491Z,95560.22
2018-12-09T02:06:18.093Z,95571.30
2018-12-09T02:06:49.742Z,95560.17
2018-12-09T02:07:21.355Z,95566.17
2018-12-09T02:07:52.974Z,95551.20
2018-12-09T02:08:24.560Z,95561.88
2018-12-09T02:08:56.143Z,95565.67
2018-12-09T02:09:27.765Z,95554.77
2018-12-09T02:09:59.344Z,95547.41
2018-12-09T02:10:30.946Z,95550.92
2018-12-09T02:11:02.551Z,95551.83
2018-12-09T02:11:34.159Z,95553.19
2018-12-09T02:12:05.745Z,95550.63
2018-12-09T02:12:37.366Z,95547.58
2018-12-09T02:13:08.961Z,95547.98
2018-12-09T02:13:40.558Z,95548.35
2018-12-09T02:14:12.153Z,95544.92
2018-12-09T02:14:43.754Z,95536.41
2018-12-09T02:15:15.357Z,95537.23
2018-12-09T02:15:46.972Z,95541.48
2018-12-09T02:16:18.600Z,95540.13
2018-12-09T02:16:50.267Z,95538.39
2018-12-09T02:17:21.856Z,95530.29
2018-12-09T02:17:53.486Z,95533.39
2018-12-09T02:18:25.100Z,95529.11
2018-12-09T02:18:56.716Z,95532.89
2018-12-09T02:19:28.332Z,95526.78
2018-12-09T02:19:59.940Z,95534.02
2018-12-09T02:20:31.546Z,95531.71
2018-12-09T02:21:03.153Z,95524.08
2018-12-09T02:21:34.748Z,95520.56
2018-12-09T02:22:06.345Z,95523.21
2018-12-09T02:22:37.988Z,95514.78
2018-12-09T02:23:09.576Z,95509.38
2018-12-09T02:23:41.183Z,95515.53
2018-12-09T02:24:12.782Z,95514.66
2018-12-09T02:24:44.381Z,95506.98
2018-12-09T02:25:15.985Z,95508.27
2018-12-09T02:25:47.591Z,95505.20
2018-12-09T02:26:19.569Z,95498.39
2018-12-09T02:26:51.235Z,95497.16
2018-12-09T02:27:22.825Z,95497.20
2018-12-09T02:27:54.456Z,95509.20
2018-12-09T02:28:26.062Z,95496.82
2018-12-09T02:28:57.665Z,95498.97
2018-12-09T02:29:29.261Z,95497.73
2018-12-09T02:30:00.856Z,95502.44
2018-12-09T02:30:32.449Z,95497.44
2018-12-09T02:31:04.052Z,95503.52
2018-12-09T02:31:35.663Z,95497.98
2018-12-09T02:32:07.280Z,95502.69
2018-12-09T02:32:38.897Z,95503.38
2018-12-09T02:33:10.544Z,95495.17
2018-12-09T02:33:42.146Z,95494.84
2018-12-09T02:34:13.741Z,95497.86
2018-12-09T02:34:45.342Z,95498.31
2018-12-09T02:35:16.938Z,95500.45
2018-12-09T02:35:48.553Z,95495.45
2018-12-09T02:36:20.176Z,95496.33
2018-12-09T02:36:51.837Z,95492.94
2018-12-09T02:37:23.456Z,95480.56
2018-12-09T02:37:55.085Z,95490.80
2018-12-09T02:38:26.685Z,95486.66
2018-12-09T02:38:58.282Z,95485.84
2018-12-09T02:39:29.873Z,95484.56
2018-12-09T02:40:01.496Z,95484.56
2018-12-09T02:40:33.097Z,95484.11
2018-12-09T02:41:04.698Z,95486.30
2018-12-09T02:41:36.316Z,95486.70
2018-12-09T02:42:07.914Z,95485.88
2018-12-09T02:42:39.515Z,95477.84
2018-12-09T02:43:11.155Z,95472.72
2018-12-09T02:43:42.767Z,95477.43
2018-12-09T02:44:14.383Z,95474.83
2018-12-09T02:44:45.982Z,95459.06
2018-12-09T02:45:17.605Z,95471.03
2018-12-09T02:45:49.225Z,95466.86
2018-12-09T02:46:20.824Z,95469.41
2018-12-09T02:46:52.470Z,95469.91
2018-12-09T02:47:24.083Z,95470.33
2018-12-09T02:47:55.725Z,95467.36
2018-12-09T02:48:27.339Z,95466.16
2018-12-09T02:48:58.950Z,95467.84
2018-12-09T02:49:30.621Z,95465.33
2018-12-09T02:50:02.222Z,95461.08
2018-12-09T02:50:33.824Z,95469.20
2018-12-09T02:51:05.427Z,95462.41
2018-12-09T02:51:37.032Z,95469.20
2018-12-09T02:52:08.648Z,95466.70
2018-12-09T02:52:40.254Z,95472.30
2018-12-09T02:53:11.881Z,95468.05
2018-12-09T02:53:43.510Z,95467.22
2018-12-09T02:54:15.095Z,95468.50
2018-12-09T02:54:46.703Z,95470.66
2018-12-09T02:55:18.324Z,95468.27
2018-12-09T02:55:49.990Z,95466.13
2018-12-09T02:56:21.619Z,95469.84
2018-12-09T02:56:53.263Z,95472.81
2018-12-09T02:57:24.858Z,95463.93
2018-12-09T02:57:56.487Z,95458.86
2018-12-09T02:58:28.121Z,95462.24
2018-12-09T02:58:59.770Z,95464.80
2018-12-09T02:59:31.365Z,95454.56
2018-12-09T03:00:02.952Z,95458.41
2018-12-09T03:00:34.567Z,95459.27
2018-12-09T03:01:06.193Z,95447.09
2018-12-09T03:01:37.811Z,95449.95
2018-12-09T03:02:09.402Z,95444.00
2018-12-09T03:02:41.003Z,95450.81
2018-12-09T03:03:12.648Z,95456.39
2018-12-09T03:03:44.259Z,95458.28
2018-12-09T03:04:15.858Z,95447.05
2018-12-09T03:04:47.476Z,95453.08
2018-12-09T03:05:19.075Z,95451.84
2018-12-09T03:05:50.723Z,95452.25
2018-12-09T03:06:22.373Z,95444.33
2018-12-09T03:06:54.033Z,95456.14
2018-12-09T03:07:25.652Z,95450.27
2018-12-09T03:07:57.276Z,95448.58
2018-12-09T03:08:28.901Z,95452.30
2018-12-09T03:09:00.498Z,95452.00
2018-12-09T03:09:32.108Z,95448.17
2018-12-09T03:10:03.723Z,95452.00
2018-12-09T03:10:35.325Z,95447.30
2018-12-09T03:11:06.932Z,95443.05
2018-12-09T03:11:38.532Z,95444.33
2018-12-09T03:12:10.145Z,95455.97
2018-12-09T03:12:41.749Z,95460.70
2018-12-09T03:13:13.392Z,95454.73
2018-12-09T03:13:45.008Z,95453.91
2018-12-09T03:14:16.610Z,95445.41
2018-12-09T03:14:48.222Z,95447.62
2018-12-09T03:15:19.821Z,95453.16
2018-12-09T03:15:51.469Z,95454.48
2018-12-09T03:16:23.074Z,95451.67
2018-12-09T03:16:54.674Z,95449.45
2018-12-09T03:17:26.264Z,95447.42
2018-12-09T03:17:57.865Z,95447.92
2018-12-09T03:18:29.491Z,95446.72
2018-12-09T03:19:01.090Z,95445.44
2018-12-09T03:19:32.706Z,95445.48
2018-12-09T03:20:04.323Z,95444.61
2018-12-09T03:20:35.951Z,95442.55
2018-12-09T03:21:07.553Z,95440.07
2018-12-09T03:21:39.160Z,95444.78
2018-12-09T03:22:10.748Z,95441.84
2018-12-09T03:22:42.346Z,95441.02
2018-12-09T03:23:13.975Z,95440.28
2018-12-09T03:23:45.600Z,95441.06
2018-12-09T03:24:17.216Z,95440.32
2018-12-09T03:24:48.880Z,95441.59
2018-12-09T03:25:20.479Z,95441.59
2018-12-09T03:25:52.125Z,95438.33
2018-12-09T03:26:23.988Z,95439.20
2018-12-09T03:26:55.573Z,95439.20
2018-12-09T03:27:27.181Z,95437.97
2018-12-09T03:27:58.774Z,95431.62
2018-12-09T03:28:30.407Z,95429.27
2018-12-09T03:29:02.018Z,95430.00
2018-12-09T03:29:33.634Z,95429.17
2018-12-09T03:30:05.260Z,95428.77
2018-12-09T03:30:36.893Z,95423.36
2018-12-09T03:31:08.493Z,95430.91
2018-12-09T03:31:40.096Z,95426.37
2018-12-09T03:32:11.717Z,95422.95
2018-12-09T03:32:43.331Z,95422.58
2018-12-09T03:33:14.933Z,95427.33
2018-12-09T03:33:46.525Z,95419.66
2018-12-09T03:34:18.137Z,95418.78
2018-12-09T03:34:49.767Z,95423.11
2018-12-09T03:35:21.366Z,95423.15
2018-12-09T03:35:52.961Z,95419.72
2018-12-09T03:36:24.558Z,95418.48
2018-12-09T03:36:56.144Z,95421.91
2018-12-09T03:37:27.727Z,95420.22
2018-12-09T03:37:59.327Z,95420.68
2018-12-09T03:38:30.950Z,95422.08
2018-12-09T03:39:02.568Z,95414.81
2018-12-09T03:39:34.184Z,95417.00
2018-12-09T03:40:05.781Z,95413.58
2018-12-09T03:40:37.391Z,95411.96
2018-12-09T03:41:08.999Z,95409.45
2018-12-09T03:41:40.612Z,95406.64
2018-12-09T03:42:12.210Z,95407.39
2018-12-09T03:42:43.836Z,95402.69
2018-12-09T03:43:15.443Z,95410.89
2018-12-09T03:43:47.095Z,95403.72
2018-12-09T03:44:18.791Z,95403.72
2018-12-09T03:44:50.409Z,95405.00
2018-12-09T03:45:22.014Z,95397.33
2018-12-09T03:45:53.613Z,95401.69
2018-12-09T03:46:25.209Z,95404.25
2018-12-09T03:46:56.800Z,95402.55
2018-12-09T03:47:28.402Z,95400.09
2018-12-09T03:47:59.997Z,95397.12
2018-12-09T03:48:31.629Z,95397.53
2018-12-09T03:49:03.234Z,95399.27
2018-12-09T03:49:34.844Z,95398.06
2018-12-09T03:50:06.451Z,95394.22
2018-12-09T03:50:38.063Z,95399.84
2018-12-09T03:51:09.649Z,95400.36
2018-12-09T03:51:41.255Z,95395.34
2018-12-09T03:52:12.854Z,95394.06
2018-12-09T03:52:44.488Z,95392.37
2018-12-09T03:53:16.090Z,95390.84
2018-12-09T03:53:47.752Z,95397.59
2018-12-09T03:54:19.349Z,95399.74
2018-12-09T03:54:50.946Z,95396.77
2018-12-09T03:55:22.550Z,95391.70
2018-12-09T03:55:54.149Z,95363.77
2018-12-09T03:56:25.736Z,95398.97
2018-12-09T03:56:57.353Z,95397.30
2018-12-09T03:57:28.955Z,95396.02
2018-12-09T03:58:00.594Z,95395.61
2018-12-09T03:58:32.219Z,95397.34
2018-12-09T03:59:03.864Z,95396.11
2018-12-09T03:59:35.457Z,95391.83
2018-12-09T04:00:07.072Z,95396.07
2018-12-09T04:00:38.693Z,95390.95
2018-12-09T04:01:10.297Z,95388.41
2018-12-09T04:01:41.945Z,95390.02
2018-12-09T04:02:13.545Z,95389.16
2018-12-09T04:02:45.203Z,95387.95
2018-12-09T04:03:16.823Z,95385.39
2018-12-09T04:03:48.473Z,95389.56
2018-12-09T04:04:20.091Z,95387.42
2018-12-09T04:04:51.732Z,95373.36
2018-12-09T04:05:23.359Z,95375.91
2018-12-09T04:05:54.969Z,95381.89
2018-12-09T04:06:26.592Z,95379.66
2018-12-09T04:06:58.183Z,95373.31
2018-12-09T04:07:29.786Z,95383.95
2018-12-09T04:08:01.385Z,95380.94
2018-12-09T04:08:32.991Z,95381.73
2018-12-09T04:09:04.628Z,95375.75
2018-12-09T04:09:36.226Z,95377.11
2018-12-09T04:10:07.821Z,95373.20
2018-12-09T04:10:39.459Z,95373.61
2018-12-09T04:11:11.053Z,95372.48
2018-12-09T04:11:42.724Z,95374.47
2018-12-09T04:12:14.326Z,95372.78
2018-12-09T04:12:45.934Z,95373.27
2018-12-09T04:13:17.534Z,95372.33
2018-12-09T04:13:50.974Z,95374.89
2018-12-09T04:14:20.851Z,95364.33
2018-12-09T04:14:52.469Z,95368.08
2018-12-09T04:15:24.080Z,95362.52
2018-12-09T04:15:55.681Z,95366.39
2018-12-09T04:16:27.297Z,95367.67
2018-12-09T04:16:58.899Z,95371.12
2018-12-09T04:17:30.517Z,95362.31
2018-12-09T04:18:02.114Z,95370.76
2018-12-09T04:18:33.724Z,95367.75
2018-12-09T04:19:05.362Z,95365.64
2018-12-09T04:19:36.961Z,95368.49
2018-12-09T04:20:08.555Z,95364.58
2018-12-09T04:20:40.216Z,95367.37
2018-12-09T04:21:11.832Z,95356.17
2018-12-09T04:21:43.424Z,95355.67
2018-12-09T04:22:15.012Z,95360.30
2018-12-09T04:22:46.605Z,95367.87
2018-12-09T04:23:20.050Z,95328.83
2018-12-09T04:23:49.847Z,95345.94
2018-12-09T04:24:21.479Z,95353.95
2018-12-09T04:24:53.093Z,95356.45
2018-12-09T04:25:24.709Z,95349.61
2018-12-09T04:25:56.323Z,95346.23
2018-12-09T04:26:28.291Z,95355.18
2018-12-09T04:26:59.890Z,95361.94
2018-12-09T04:27:31.504Z,95343.67
2018-12-09T04:28:03.102Z,95348.38
2018-12-09T04:28:34.707Z,95345.41
2018-12-09T04:29:06.335Z,95346.77
2018-12-09T04:29:37.972Z,95338.60
2018-12-09T04:30:09.589Z,95346.27
2018-12-09T04:30:41.201Z,95336.98
2018-12-09T04:31:12.802Z,95338.27
2018-12-09T04:31:44.387Z,95338.72
2018-12-09T04:32:15.995Z,95331.92
2018-12-09T04:32:47.588Z,95334.06
2018-12-09T04:33:19.186Z,95327.67
2018-12-09T04:33:50.777Z,95326.14
2018-12-09T04:34:22.412Z,95333.77
2018-12-09T04:34:54.029Z,95329.94
2018-12-09T04:35:25.630Z,95318.48
2018-12-09T04:35:57.230Z,95318.48
2018-12-09T04:36:28.831Z,95323.71
2018-12-09T04:37:00.442Z,95330.52
2018-12-09T04:37:32.136Z,95325.33
2018-12-09T04:38:03.761Z,95328.30
2018-12-09T04:38:35.423Z,95322.27
2018-12-09T04:39:07.060Z,95324.87
2018-12-09T04:39:38.708Z,95324.87
2018-12-09T04:40:10.310Z,95319.75
2018-12-09T04:40:41.969Z,95328.30
2018-12-09T04:41:13.576Z,95323.59
2018-12-09T04:41:45.172Z,95331.30
2018-12-09T04:42:16.789Z,95324.13
2018-12-09T04:42:48.415Z,95324.98
2018-12-09T04:43:20.012Z,95324.62
2018-12-09T04:43:51.601Z,95322.94
2018-12-09T04:44:23.361Z,95322.52
2018-12-09T04:44:54.970Z,95330.31
2018-12-09T04:45:26.566Z,95335.87
2018-12-09T04:45:58.234Z,95333.73
2018-12-09T04:46:29.825Z,95332.95
2018-12-09T04:47:01.408Z,95334.64
2018-12-09T04:47:33.069Z,95342.77
2018-12-09T04:48:04.683Z,95342.31
2018-12-09T04:48:36.348Z,95338.48
2018-12-09T04:49:07.969Z,95338.14
2018-12-09T04:49:39.608Z,95338.14
2018-12-09T04:50:11.210Z,95333.94
2018-12-09T04:50:42.805Z,95335.63
2018-12-09T04:51:14.405Z,95333.89
2018-12-09T04:51:46.002Z,95338.59
2018-12-09T04:52:17.601Z,95333.07
2018-12-09T04:52:49.211Z,95333.12
2018-12-09T04:53:20.815Z,95336.50
2018-12-09T04:53:52.421Z,95334.84
2018-12-09T04:54:24.072Z,95340.83
2018-12-09T04:54:55.672Z,95336.20
2018-12-09T04:55:27.296Z,95332.00
2018-12-09T04:55:58.907Z,95335.38
2018-12-09T04:56:30.510Z,95330.72
2018-12-09T04:57:02.122Z,95340.49
2018-12-09T04:57:33.783Z,95348.58
2018-12-09T04:58:05.378Z,95343.09
2018-12-09T04:58:36.962Z,95346.06
2018-12-09T04:59:08.548Z,95348.16
2018-12-09T04:59:40.187Z,95350.31
2018-12-09T05:00:11.803Z,95352.45
2018-12-09T05:00:43.405Z,95353.69
2018-12-09T05:01:15.001Z,95350.72
2018-12-09T05:01:46.619Z,95352.41
2018-12-09T05:02:18.205Z,95346.93
2018-12-09T05:02:49.815Z,95347.75
2018-12-09T05:03:21.435Z,95353.48
2018-12-09T05:03:53.039Z,95351.13
2018-12-09T05:04:24.678Z,95357.16
2018-12-09T05:04:56.321Z,95361.03
2018-12-09T05:05:27.937Z,95352.61
2018-12-09T05:05:59.534Z,95351.67
2018-12-09T05:06:31.203Z,95353.84
2018-12-09T05:07:02.811Z,95356.74
2018-12-09T05:07:34.418Z,95343.13
2018-12-09T05:08:06.029Z,95348.20
2018-12-09T05:08:37.621Z,95340.98
2018-12-09T05:09:09.204Z,95346.47
2018-12-09T05:09:40.834Z,95351.42
2018-12-09T05:10:12.623Z,95354.27
2018-12-09T05:10:44.440Z,95348.25
2018-12-09T05:11:16.521Z,95350.23
2018-12-09T05:11:48.282Z,95346.35
2018-12-09T05:12:20.167Z,95335.30
2018-12-09T05:12:52.047Z,95347.27
2018-12-09T05:13:24.018Z,95348.09
2018-12-09T05:13:55.940Z,95350.35
2018-12-09T05:14:27.722Z,95344.13
2018-12-09T05:14:59.701Z,95351.30
2018-12-09T05:15:31.324Z,95347.55
2018-12-09T05:16:02.934Z,95348.00
2018-12-09T05:16:34.604Z,95354.27
2018-12-09T05:17:06.199Z,95350.56
2018-12-09T05:17:37.795Z,95348.05
2018-12-09T05:18:09.412Z,95352.75
2018-12-09T05:18:41.010Z,95351.47
2018-12-09T05:19:12.609Z,95350.67
2018-12-09T05:19:44.229Z,95350.27
2018-12-09T05:20:15.835Z,95352.34
2018-12-09T05:20:47.441Z,95356.99
2018-12-09T05:21:19.099Z,95355.30
2018-12-09T05:21:50.692Z,95353.69
2018-12-09T05:22:22.312Z,95355.78
2018-12-09T05:22:53.913Z,95345.20
2018-12-09T05:23:25.538Z,95343.05
2018-12-09T05:23:57.135Z,95344.37
2018-12-09T05:24:28.852Z,95347.38
2018-12-09T05:25:00.499Z,95341.06
2018-12-09T05:25:32.168Z,95392.58
2018-12-09T05:26:03.785Z,95348.25
2018-12-09T05:26:35.433Z,95346.18
2018-12-09T05:27:07.025Z,95355.47
2018-12-09T05:27:38.612Z,95354.14
2018-12-09T05:28:10.233Z,95349.94
2018-12-09T05:28:41.847Z,95349.53
2018-12-09T05:29:13.451Z,95350.77
2018-12-09T05:29:45.106Z,95353.36
2018-12-09T05:30:16.710Z,95354.23
2018-12-09T05:30:48.313Z,95352.04
2018-12-09T05:31:19.929Z,95354.59
2018-12-09T05:31:51.544Z,95352.04
2018-12-09T05:32:23.160Z,95346.06
2018-12-09T05:32:54.752Z,95354.19
2018-12-09T05:33:26.368Z,95356.78
2018-12-09T05:33:57.969Z,95353.84
2018-12-09T05:34:29.622Z,95353.36
2018-12-09T05:35:01.257Z,95349.53
2018-12-09T05:35:32.861Z,95352.09
2018-12-09T05:36:04.472Z,95356.33
2018-12-09T05:36:36.074Z,95355.88
2018-12-09T05:37:07.669Z,95348.98
2018-12-09T05:37:39.248Z,95352.50
2018-12-09T05:38:10.856Z,95352.50
2018-12-09T05:38:42.472Z,95358.84
2018-12-09T05:39:14.083Z,95348.62
2018-12-09T05:39:45.691Z,95355.01
2018-12-09T05:40:17.316Z,95352.04
2018-12-09T05:40:48.929Z,95352.86
2018-12-09T05:41:20.545Z,95356.24
2018-12-09T05:41:52.132Z,95360.08
2018-12-09T05:42:23.783Z,95359.21
2018-12-09T05:42:55.396Z,95361.69
2018-12-09T05:43:27.035Z,95361.69
2018-12-09T05:43:58.623Z,95360.91
2018-12-09T05:44:30.230Z,95359.95
2018-12-09T05:45:01.868Z,95366.34
2018-12-09T05:45:33.478Z,95357.11
2018-12-09T05:46:05.073Z,95368.49
2018-12-09T05:46:36.683Z,95372.33
2018-12-09T05:47:08.296Z,95368.08
2018-12-09T05:47:39.911Z,95371.17
2018-12-09T05:48:11.505Z,95371.50
2018-12-09T05:48:43.102Z,95374.55
2018-12-09T05:49:14.720Z,95374.47
2018-12-09T05:49:46.326Z,95371.12
2018-12-09T05:50:17.904Z,95379.42
2018-12-09T05:50:49.502Z,95375.25
2018-12-09T05:51:21.167Z,95375.59
2018-12-09T05:51:52.779Z,95376.48
2018-12-09T05:52:24.387Z,95381.23
2018-12-09T05:52:55.989Z,95381.64
2018-12-09T05:53:27.602Z,95383.02
2018-12-09T05:53:59.222Z,95381.73
2018-12-09T05:54:30.822Z,95387.26
2018-12-09T05:55:02.469Z,95385.52
2018-12-09T05:55:34.074Z,95389.41
2018-12-09T05:56:05.676Z,95390.68
2018-12-09T05:56:37.274Z,95399.63
2018-12-09T05:57:08.878Z,95397.97
2018-12-09T05:57:40.483Z,95402.19
2018-12-09T05:58:12.089Z,95399.59
2018-12-09T05:58:43.689Z,95398.76
2018-12-09T05:59:15.292Z,95398.84
2018-12-09T05:59:46.915Z,95400.61
2018-12-09T06:00:18.579Z,95359.77
2018-12-09T06:00:50.172Z,95399.33
2018-12-09T06:01:21.760Z,95402.26
2018-12-09T06:01:53.357Z,95394.59
2018-12-09T06:02:24.976Z,95396.28
2018-12-09T06:02:56.575Z,95395.05
2018-12-09T06:03:28.182Z,95400.16
2018-12-09T06:03:59.781Z,95394.62
2018-12-09T06:04:31.378Z,95398.47
2018-12-09T06:05:02.992Z,95403.63
2018-12-09T06:05:34.619Z,95395.95
2018-12-09T06:06:06.223Z,95398.97
2018-12-09T06:06:37.828Z,95402.34
2018-12-09T06:07:09.441Z,95408.32
2018-12-09T06:07:41.052Z,95401.06
2018-12-09T06:08:12.640Z,95410.09
2018-12-09T06:08:44.244Z,95411.82
2018-12-09T06:09:15.898Z,95410.13
2018-12-09T06:09:47.501Z,95405.06
2018-12-09T06:10:19.131Z,95403.83
2018-12-09T06:10:50.733Z,95397.80
2018-12-09T06:11:22.349Z,95402.09